createdAt,value
2023-04-17T00:01:00.550Z,19.23
2023-04-17T00:03:32.040Z,16.75
2023-04-17T00:06:01.202Z,16.58
2023-04-17T00:08:30.039Z,17.92
2023-04-17T00:11:07.215Z,19.67
2023-04-17T00:16:10.708Z,17.50
2023-04-17T00:18:39.474Z,17.50
2023-04-17T00:21:08.497Z,18.23
2023-04-17T00:23:37.332Z,18.30
2023-04-17T00:26:06.419Z,16.02
2023-04-17T00:28:35.423Z,16.33
2023-04-17T00:31:04.676Z,14.35
2023-04-17T00:33:34.684Z,15.10
2023-04-17T00:36:03.580Z,16.55
2023-04-17T00:38:32.789Z,15.52
2023-04-17T00:41:01.768Z,15.95
2023-04-17T00:43:30.687Z,16.67
2023-04-17T00:46:00.210Z,14.45
2023-04-17T00:48:29.799Z,13.73
2023-04-17T00:51:02.432Z,15.30
2023-04-17T00:53:32.726Z,14.60
2023-04-17T00:56:03.684Z,14.55
2023-04-17T00:58:33.014Z,13.55
2023-04-17T01:01:01.914Z,14.55
2023-04-17T01:03:33.109Z,16.88
2023-04-17T01:06:03.994Z,14.32
2023-04-17T01:08:42.694Z,15.35
2023-04-17T01:13:48.187Z,15.40
2023-04-17T01:16:18.491Z,14.93
2023-04-17T01:18:48.597Z,15.38
2023-04-17T01:21:18.975Z,15.82
2023-04-17T01:23:52.099Z,15.35
2023-04-17T01:26:25.155Z,16.40
2023-04-17T01:28:56.297Z,15.25
2023-04-17T01:31:29.711Z,15.73
2023-04-17T01:34:00.419Z,15.40
2023-04-17T01:36:29.832Z,14.80
2023-04-17T01:38:58.625Z,14.73
2023-04-17T01:41:28.823Z,15.43
2023-04-17T01:43:57.756Z,15.63
2023-04-17T01:46:26.887Z,16.50
2023-04-17T01:48:57.604Z,14.75
2023-04-17T01:51:28.051Z,16.25
2023-04-17T01:53:57.104Z,15.63
2023-04-17T01:56:26.098Z,16.30
2023-04-17T01:58:56.301Z,14.93
2023-04-17T02:01:25.409Z,15.82
2023-04-17T02:03:54.430Z,14.90
2023-04-17T02:06:23.513Z,15.85
2023-04-17T02:08:52.455Z,15.70
2023-04-17T02:11:21.993Z,15.50
2023-04-17T02:13:53.163Z,17.08
2023-04-17T02:16:23.935Z,15.85
2023-04-17T02:18:53.413Z,17.17
2023-04-17T02:21:22.453Z,16.33
2023-04-17T02:23:51.196Z,17.25
2023-04-17T02:26:19.991Z,16.08
2023-04-17T02:28:48.873Z,16.08
2023-04-17T02:31:17.839Z,16.30
2023-04-17T02:33:49.256Z,16.40
2023-04-17T02:36:18.686Z,17.25
2023-04-17T02:38:48.244Z,16.67
2023-04-17T02:41:17.400Z,17.67
2023-04-17T02:43:47.026Z,17.35
2023-04-17T02:46:18.268Z,17.05
2023-04-17T02:48:49.229Z,17.85
2023-04-17T02:51:18.495Z,17.48
2023-04-17T02:53:49.244Z,17.67
2023-04-17T02:56:19.970Z,18.85
2023-04-17T02:58:49.048Z,17.70
2023-04-17T03:01:24.485Z,18.77
2023-04-17T03:03:56.424Z,17.42
2023-04-17T03:08:56.218Z,18.35
2023-04-17T03:11:25.253Z,18.20
2023-04-17T03:13:54.291Z,18.33
2023-04-17T03:16:24.272Z,17.98
2023-04-17T03:18:54.971Z,19.38
2023-04-17T03:21:23.790Z,18.35
2023-04-17T03:23:52.643Z,18.02
2023-04-17T03:26:23.192Z,18.40
2023-04-17T03:28:52.303Z,19.25
2023-04-17T03:31:24.513Z,21.85
2023-04-17T03:33:55.228Z,17.50
2023-04-17T03:36:27.201Z,17.92
2023-04-17T03:38:57.819Z,19.58
2023-04-17T03:41:26.728Z,17.35
2023-04-17T03:43:56.051Z,18.65
2023-04-17T03:46:25.032Z,17.35
2023-04-17T03:48:56.283Z,15.50
2023-04-17T03:51:27.146Z,16.70
2023-04-17T03:53:57.118Z,16.25
2023-04-17T03:56:26.140Z,15.30
2023-04-17T03:58:55.262Z,15.50
2023-04-17T04:01:28.412Z,15.73
2023-04-17T04:04:18.394Z,14.70
2023-04-17T04:06:49.488Z,15.48
2023-04-17T04:09:22.398Z,16.08
2023-04-17T04:11:51.358Z,14.85
2023-04-17T04:14:20.468Z,14.48
2023-04-17T04:16:50.610Z,16.17
2023-04-17T04:19:20.970Z,15.13
2023-04-17T04:21:49.949Z,14.60
2023-04-17T04:24:20.307Z,16.73
2023-04-17T04:26:49.858Z,14.82
2023-04-17T04:29:19.903Z,16.63
2023-04-17T04:31:54.310Z,17.40
2023-04-17T04:34:30.116Z,17.95
2023-04-17T04:36:58.982Z,16.95
2023-04-17T04:39:43.446Z,16.85
2023-04-17T04:42:21.998Z,16.98
2023-04-17T04:45:26.408Z,16.63
2023-04-17T04:47:56.251Z,17.92
2023-04-17T04:50:27.163Z,17.98
2023-04-17T04:52:56.110Z,16.48
2023-04-17T04:55:39.773Z,18.77
2023-04-17T04:58:08.797Z,21.05
2023-04-17T05:00:39.432Z,18.60
2023-04-17T05:03:09.473Z,18.85
2023-04-17T05:05:41.278Z,17.30
2023-04-17T05:08:11.957Z,17.45
2023-04-17T05:10:40.716Z,18.00
2023-04-17T05:13:10.396Z,18.52
2023-04-17T05:15:39.532Z,18.90
2023-04-17T05:18:08.694Z,17.80
2023-04-17T05:20:39.148Z,17.58
2023-04-17T05:23:08.149Z,18.02
2023-04-17T05:25:37.070Z,17.00
2023-04-17T05:28:08.892Z,16.08
2023-04-17T05:30:37.711Z,15.98
2023-04-17T05:33:15.090Z,17.63
2023-04-17T05:35:56.530Z,16.15
2023-04-17T05:38:26.309Z,16.60
2023-04-17T05:40:55.306Z,16.92
2023-04-17T05:43:24.148Z,15.73
2023-04-17T05:45:54.963Z,16.55
2023-04-17T05:48:23.865Z,16.63
2023-04-17T05:50:55.912Z,16.83
2023-04-17T05:53:25.436Z,17.42
2023-04-17T05:55:58.268Z,15.65
2023-04-17T05:58:34.780Z,15.68
2023-04-17T06:01:17.857Z,15.90
2023-04-17T06:03:47.582Z,14.95
2023-04-17T06:06:24.722Z,15.18
2023-04-17T06:08:54.559Z,14.85
2023-04-17T06:11:25.400Z,15.32
2023-04-17T06:13:55.162Z,15.23
2023-04-17T06:16:24.419Z,13.55
2023-04-17T06:18:53.413Z,13.80
2023-04-17T06:21:24.059Z,13.68
2023-04-17T06:23:53.630Z,15.02
2023-04-17T06:26:22.714Z,15.05
2023-04-17T06:28:51.765Z,14.38
2023-04-17T06:31:20.994Z,15.80
2023-04-17T06:33:51.179Z,14.85
2023-04-17T06:36:24.912Z,12.75
2023-04-17T06:38:57.775Z,13.20
2023-04-17T06:41:26.625Z,13.88
2023-04-17T06:43:56.016Z,12.70
2023-04-17T06:46:25.031Z,12.90
2023-04-17T06:48:57.905Z,13.93
2023-04-17T06:51:29.321Z,16.27
2023-04-17T06:53:59.269Z,14.80
2023-04-17T06:56:28.129Z,13.57
2023-04-17T06:58:57.965Z,14.43
2023-04-17T07:01:28.007Z,14.57
2023-04-17T07:03:57.000Z,14.25
2023-04-17T07:06:27.734Z,13.35
2023-04-17T07:08:56.950Z,13.65
2023-04-17T07:11:25.736Z,15.43
2023-04-17T07:13:54.600Z,14.18
2023-04-17T07:16:23.549Z,15.77
2023-04-17T07:18:53.171Z,13.07
2023-04-17T07:21:21.957Z,14.63
2023-04-17T07:23:52.238Z,13.35
2023-04-17T07:26:21.018Z,13.18
2023-04-17T07:28:49.894Z,12.70
2023-04-17T07:31:18.668Z,13.52
2023-04-17T07:33:47.588Z,12.75
2023-04-17T07:36:16.906Z,14.43
2023-04-17T07:38:47.553Z,14.70
2023-04-17T07:41:17.703Z,13.95
2023-04-17T07:43:46.640Z,13.13
2023-04-17T07:46:15.671Z,13.27
2023-04-17T07:48:44.649Z,13.98
2023-04-17T07:51:13.533Z,13.60
2023-04-17T07:53:42.826Z,14.55
2023-04-17T07:56:13.210Z,16.63
2023-04-17T07:58:45.080Z,15.32
2023-04-17T08:01:14.710Z,15.10
2023-04-17T08:03:45.166Z,14.50
2023-04-17T08:06:14.425Z,13.63
2023-04-17T08:08:47.468Z,14.77
2023-04-17T08:11:16.611Z,16.25
2023-04-17T08:13:46.788Z,14.98
2023-04-17T08:16:15.650Z,14.35
2023-04-17T08:18:44.537Z,15.27
2023-04-17T08:21:13.470Z,15.20
2023-04-17T08:23:42.264Z,15.05
2023-04-17T08:26:11.211Z,13.93
2023-04-17T08:28:40.199Z,14.25
2023-04-17T08:31:10.947Z,14.90
2023-04-17T08:33:39.756Z,15.90
2023-04-17T08:36:10.516Z,13.65
2023-04-17T08:38:39.485Z,15.20
2023-04-17T08:41:14.283Z,14.10
2023-04-17T08:43:43.930Z,15.15
2023-04-17T08:46:14.639Z,16.00
2023-04-17T08:48:43.702Z,16.48
2023-04-17T08:51:12.853Z,15.52
2023-04-17T08:53:41.875Z,15.75
2023-04-17T08:56:10.766Z,15.18
2023-04-17T08:58:39.766Z,13.88
2023-04-17T09:01:15.888Z,15.15
2023-04-17T09:03:46.803Z,15.30
2023-04-17T09:06:17.074Z,15.50
2023-04-17T09:08:57.867Z,14.45
2023-04-17T09:11:27.471Z,13.55
2023-04-17T09:13:56.473Z,14.10
2023-04-17T09:16:28.168Z,15.45
2023-04-17T09:19:06.915Z,15.02
2023-04-17T09:21:35.834Z,16.27
2023-04-17T09:24:06.521Z,15.52
2023-04-17T09:26:35.978Z,16.30
2023-04-17T09:29:09.337Z,15.73
2023-04-17T09:31:42.199Z,15.65
2023-04-17T09:34:15.442Z,15.48
2023-04-17T09:36:45.302Z,16.45
2023-04-17T09:39:20.388Z,14.02
2023-04-17T09:41:49.396Z,16.15
2023-04-17T09:44:30.193Z,15.70
2023-04-17T09:47:01.830Z,17.08
2023-04-17T09:49:35.056Z,16.23
2023-04-17T09:52:04.913Z,15.13
2023-04-17T09:54:37.677Z,16.02
2023-04-17T09:57:08.899Z,16.42
2023-04-17T09:59:41.239Z,17.50
2023-04-17T10:04:42.599Z,15.68
2023-04-17T10:07:13.040Z,16.90
2023-04-17T10:09:45.598Z,17.00
2023-04-17T10:12:16.796Z,17.90
2023-04-17T10:14:48.312Z,16.52
2023-04-17T10:17:25.698Z,17.48
2023-04-17T10:19:57.659Z,15.75
2023-04-17T10:22:34.846Z,16.13
2023-04-17T10:25:20.680Z,15.57
2023-04-17T10:27:52.248Z,17.25
2023-04-17T10:30:23.173Z,17.42
2023-04-17T10:33:22.982Z,14.93
2023-04-17T10:35:52.053Z,17.98
2023-04-17T10:38:38.102Z,16.27
2023-04-17T10:41:11.310Z,16.75
2023-04-17T10:43:45.969Z,16.80
2023-04-17T10:46:15.825Z,16.67
2023-04-17T10:48:52.245Z,17.25
2023-04-17T10:51:43.556Z,16.45
2023-04-17T10:54:15.669Z,15.88
2023-04-17T10:56:48.389Z,15.63
2023-04-17T10:59:18.895Z,16.40
2023-04-17T11:02:02.164Z,16.35
2023-04-17T11:04:33.830Z,14.60
2023-04-17T11:07:03.179Z,18.02
2023-04-17T11:09:31.974Z,15.68
2023-04-17T11:12:02.770Z,16.67
2023-04-17T11:14:32.611Z,15.27
2023-04-17T11:17:03.963Z,15.63
2023-04-17T11:19:34.892Z,15.70
2023-04-17T11:22:03.847Z,15.30
2023-04-17T11:24:33.374Z,15.82
2023-04-17T11:27:03.865Z,15.25
2023-04-17T11:29:33.143Z,15.13
2023-04-17T11:32:01.998Z,14.45
2023-04-17T11:34:36.000Z,15.07
2023-04-17T11:37:05.034Z,15.63
2023-04-17T11:39:35.285Z,15.25
2023-04-17T11:42:05.406Z,14.60
2023-04-17T11:44:34.493Z,17.73
2023-04-17T11:47:04.086Z,14.82
2023-04-17T11:49:34.660Z,14.55
2023-04-17T11:52:06.490Z,15.52
2023-04-17T11:54:37.726Z,13.75
2023-04-17T11:57:12.436Z,15.35
2023-04-17T11:59:43.065Z,15.43
2023-04-17T12:02:12.581Z,15.68
2023-04-17T12:04:41.926Z,14.70
2023-04-17T12:07:23.923Z,15.00
2023-04-17T12:09:57.808Z,16.13
2023-04-17T12:12:26.843Z,14.60
2023-04-17T12:14:55.829Z,14.38
2023-04-17T12:17:24.906Z,14.93
2023-04-17T12:19:53.876Z,14.23
2023-04-17T12:22:24.138Z,14.05
2023-04-17T12:24:53.196Z,13.73
2023-04-17T12:27:22.008Z,14.45
2023-04-17T12:29:50.762Z,14.27
2023-04-17T12:32:19.816Z,14.18
2023-04-17T12:34:48.637Z,14.68
2023-04-17T12:37:17.534Z,14.95
2023-04-17T12:39:48.249Z,15.15
2023-04-17T12:42:17.531Z,15.52
2023-04-17T12:44:47.005Z,14.05
2023-04-17T12:47:16.961Z,13.60
2023-04-17T12:49:46.136Z,14.75
2023-04-17T12:52:15.312Z,14.68
2023-04-17T12:54:44.246Z,14.43
2023-04-17T12:57:15.398Z,17.08
2023-04-17T12:59:47.394Z,14.13
2023-04-17T13:02:16.402Z,14.13
2023-04-17T13:04:45.611Z,13.90
2023-04-17T13:07:14.637Z,13.75
2023-04-17T13:09:43.700Z,15.15
2023-04-17T13:12:15.534Z,13.32
2023-04-17T13:14:44.461Z,13.15
2023-04-17T13:17:17.009Z,14.60
2023-04-17T13:19:46.331Z,13.63
2023-04-17T13:22:15.696Z,14.07
2023-04-17T13:24:44.891Z,13.32
2023-04-17T13:27:15.422Z,14.20
2023-04-17T13:29:44.354Z,14.57
2023-04-17T13:32:13.393Z,14.18
2023-04-17T13:34:42.204Z,15.27
2023-04-17T13:37:11.294Z,15.48
2023-04-17T13:39:40.169Z,14.77
2023-04-17T13:42:09.261Z,14.02
2023-04-17T13:44:39.633Z,15.25
2023-04-17T13:47:09.210Z,13.70
2023-04-17T13:49:38.118Z,15.05
2023-04-17T13:52:07.535Z,14.02
2023-04-17T13:54:36.640Z,14.82
2023-04-17T13:57:06.679Z,13.82
2023-04-17T13:59:35.712Z,15.65
2023-04-17T14:02:06.036Z,17.42
2023-04-17T14:04:35.113Z,15.00
2023-04-17T14:07:04.460Z,14.73
2023-04-17T14:09:33.366Z,15.65
2023-04-17T14:12:02.392Z,17.05
2023-04-17T14:14:31.294Z,14.65
2023-04-17T14:17:00.246Z,13.40
2023-04-17T14:19:30.678Z,13.50
2023-04-17T14:21:59.743Z,15.15
2023-04-17T14:24:28.762Z,15.07
2023-04-17T14:27:01.229Z,15.18
2023-04-17T14:29:42.324Z,13.90
2023-04-17T14:32:12.169Z,14.73
2023-04-17T14:34:42.457Z,14.10
2023-04-17T14:37:11.328Z,13.82
2023-04-17T14:39:40.276Z,13.85
2023-04-17T14:42:09.126Z,13.38
2023-04-17T14:44:38.012Z,13.88
2023-04-17T14:47:07.038Z,14.02
2023-04-17T14:49:35.902Z,14.10
2023-04-17T14:52:06.504Z,14.27
2023-04-17T14:54:35.749Z,12.55
2023-04-17T14:57:04.791Z,13.38
2023-04-17T14:59:33.516Z,13.40
2023-04-17T15:02:02.495Z,12.65
2023-04-17T15:04:32.232Z,13.10
2023-04-17T15:07:02.092Z,13.35
2023-04-17T15:09:32.576Z,12.90
2023-04-17T15:12:02.735Z,12.95
2023-04-17T15:14:31.704Z,13.65
2023-04-17T15:17:02.537Z,14.27
2023-04-17T15:19:31.595Z,12.52
2023-04-17T15:22:02.837Z,12.77
2023-04-17T15:24:33.232Z,13.40
2023-04-17T15:27:02.241Z,12.40
2023-04-17T15:29:31.736Z,12.88
2023-04-17T15:32:01.800Z,13.18
2023-04-17T15:34:30.730Z,12.30
2023-04-17T15:36:59.550Z,12.70
2023-04-17T15:39:28.423Z,13.40
2023-04-17T15:41:59.256Z,13.38
2023-04-17T15:44:29.286Z,12.38
2023-04-17T15:46:58.238Z,12.45
2023-04-17T15:49:28.510Z,13.27
2023-04-17T15:51:57.491Z,13.50
2023-04-17T15:54:26.369Z,13.50
2023-04-17T15:56:56.762Z,13.32
2023-04-17T15:59:27.376Z,12.85
2023-04-17T16:01:56.382Z,12.25
2023-04-17T16:04:25.467Z,12.43
2023-04-17T16:06:55.449Z,13.57
2023-04-17T16:09:24.637Z,14.05
2023-04-17T16:11:53.407Z,13.02
2023-04-17T16:14:22.495Z,12.57
2023-04-17T16:16:52.715Z,12.02
2023-04-17T16:19:21.466Z,13.02
2023-04-17T16:21:50.250Z,13.25
2023-04-17T16:24:19.337Z,14.35
2023-04-17T16:26:48.159Z,11.50
2023-04-17T16:29:16.904Z,12.20
2023-04-17T16:31:45.919Z,12.35
2023-04-17T16:34:16.303Z,14.10
2023-04-17T16:36:47.302Z,12.48
2023-04-17T16:39:16.163Z,13.18
2023-04-17T16:41:45.252Z,12.57
2023-04-17T16:44:14.281Z,12.07
2023-04-17T16:46:59.275Z,12.98
2023-04-17T16:49:33.544Z,11.77
2023-04-17T16:52:02.651Z,12.13
2023-04-17T16:54:32.967Z,12.00
2023-04-17T16:57:05.328Z,12.20
2023-04-17T16:59:34.672Z,11.63
2023-04-17T17:02:03.607Z,11.10
2023-04-17T17:04:34.096Z,12.15
2023-04-17T17:07:03.034Z,11.85
2023-04-17T17:09:31.995Z,11.13
2023-04-17T17:12:01.072Z,12.65
2023-04-17T17:14:30.164Z,10.75
2023-04-17T17:16:59.141Z,11.27
2023-04-17T17:19:28.264Z,10.80
2023-04-17T17:21:58.643Z,11.68
2023-04-17T17:24:27.862Z,12.00
2023-04-17T17:26:59.601Z,10.45
2023-04-17T17:29:28.379Z,11.65
2023-04-17T17:31:57.451Z,11.98
2023-04-17T17:34:27.243Z,11.70
2023-04-17T17:36:56.362Z,11.57
2023-04-17T17:39:26.746Z,10.55
2023-04-17T17:41:57.328Z,11.65
2023-04-17T17:44:26.521Z,10.85
2023-04-17T17:46:55.592Z,11.32
2023-04-17T17:49:24.567Z,11.43
2023-04-17T17:51:56.114Z,11.77
2023-04-17T17:54:26.206Z,11.23
2023-04-17T17:56:55.315Z,11.23
2023-04-17T17:59:24.187Z,11.18
2023-04-17T18:01:53.624Z,11.90
2023-04-17T18:04:22.946Z,11.55
2023-04-17T18:06:52.007Z,11.35
2023-04-17T18:09:20.949Z,10.70
2023-04-17T18:11:51.261Z,11.55
2023-04-17T18:14:20.311Z,11.50
2023-04-17T18:16:49.263Z,10.88
2023-04-17T18:19:18.379Z,11.02
2023-04-17T18:21:48.194Z,11.50
2023-04-17T18:24:17.126Z,11.20
2023-04-17T18:26:45.982Z,10.23
2023-04-17T18:29:16.355Z,11.13
2023-04-17T18:31:45.951Z,11.45
2023-04-17T18:34:15.513Z,11.30
2023-04-17T18:36:44.423Z,11.00
2023-04-17T18:39:14.752Z,11.00
2023-04-17T18:41:43.718Z,10.65
2023-04-17T18:44:12.707Z,12.20
2023-04-17T18:46:43.213Z,11.60
2023-04-17T18:49:12.057Z,11.50
2023-04-17T18:51:45.452Z,12.23
2023-04-17T18:54:14.690Z,11.25
2023-04-17T18:56:44.791Z,11.18
2023-04-17T18:59:13.666Z,12.32
2023-04-17T19:01:44.155Z,11.63
2023-04-17T19:04:13.215Z,11.82
2023-04-17T19:06:42.211Z,11.63
2023-04-17T19:09:11.565Z,11.30
2023-04-17T19:11:40.621Z,10.32
2023-04-17T19:14:09.350Z,10.43
2023-04-17T19:16:38.465Z,11.48
2023-04-17T19:19:11.371Z,10.45
2023-04-17T19:21:40.397Z,10.93
2023-04-17T19:24:09.815Z,10.57
2023-04-17T19:26:39.209Z,10.63
2023-04-17T19:29:08.367Z,11.30
2023-04-17T19:31:38.068Z,10.27
2023-04-17T19:34:10.675Z,10.82
2023-04-17T19:36:39.770Z,10.63
2023-04-17T19:39:09.007Z,10.38
2023-04-17T19:41:38.322Z,10.27
2023-04-17T19:44:10.628Z,10.13
2023-04-17T19:49:17.440Z,10.63
2023-04-17T19:51:46.637Z,10.32
2023-04-17T19:54:16.028Z,11.30
2023-04-17T19:56:47.633Z,10.65
2023-04-17T19:59:16.696Z,10.68
2023-04-17T20:01:45.745Z,10.32
2023-04-17T20:04:16.643Z,9.68
2023-04-17T20:06:45.879Z,9.82
2023-04-17T20:09:15.404Z,10.20
2023-04-17T20:11:44.586Z,10.32
2023-04-17T20:14:14.783Z,10.10
2023-04-17T20:16:46.382Z,10.45
2023-04-17T20:19:16.838Z,10.30
2023-04-17T20:21:46.929Z,10.80
2023-04-17T20:24:19.225Z,9.40
2023-04-17T20:26:48.285Z,10.35
2023-04-17T20:29:17.399Z,9.95
2023-04-17T20:31:46.245Z,10.10
2023-04-17T20:34:16.946Z,10.32
2023-04-17T20:36:46.502Z,10.18
2023-04-17T20:39:16.465Z,9.32
2023-04-17T20:41:46.454Z,10.25
2023-04-17T20:44:16.474Z,10.75
2023-04-17T20:46:45.793Z,11.00
2023-04-17T20:49:16.312Z,10.68
2023-04-17T20:51:45.505Z,10.70
2023-04-17T20:54:14.630Z,11.00
2023-04-17T20:56:44.657Z,11.27
2023-04-17T20:59:13.570Z,11.60
2023-04-17T21:01:44.453Z,11.65
2023-04-17T21:04:13.753Z,12.35
2023-04-17T21:06:44.350Z,12.15
2023-04-17T21:09:14.820Z,12.52
2023-04-17T21:11:44.292Z,14.00
2023-04-17T21:14:15.317Z,12.52
2023-04-17T21:16:45.497Z,12.63
2023-04-17T21:19:15.471Z,13.30
2023-04-17T21:21:45.867Z,12.57
2023-04-17T21:24:15.035Z,14.13
2023-04-17T21:26:43.959Z,14.07
2023-04-17T21:29:14.625Z,14.20
2023-04-17T21:31:43.858Z,14.63
2023-04-17T21:34:13.177Z,15.18
2023-04-17T21:36:42.333Z,14.52
2023-04-17T21:39:12.628Z,13.55
2023-04-17T21:41:41.506Z,14.57
2023-04-17T21:44:10.759Z,13.45
2023-04-17T21:46:39.905Z,14.52
2023-04-17T21:49:08.936Z,15.32
2023-04-17T21:51:37.908Z,15.32
2023-04-17T21:54:07.038Z,15.52
2023-04-17T21:56:37.367Z,15.88
2023-04-17T21:59:06.263Z,16.15
2023-04-17T22:01:35.241Z,16.20
2023-04-17T22:04:04.224Z,16.23
2023-04-17T22:06:36.422Z,16.98
2023-04-17T22:09:05.396Z,15.45
2023-04-17T22:11:34.277Z,16.35
2023-04-17T22:14:04.476Z,16.73
2023-04-17T22:16:33.299Z,17.85
2023-04-17T22:19:02.334Z,18.15
2023-04-17T22:21:34.197Z,17.38
2023-04-17T22:24:03.106Z,18.40
2023-04-17T22:26:32.717Z,16.17
2023-04-17T22:29:01.394Z,16.63
2023-04-17T22:31:31.550Z,17.42
2023-04-17T22:34:00.695Z,16.45
2023-04-17T22:36:30.083Z,16.42
2023-04-17T22:38:59.057Z,16.77
2023-04-17T22:41:27.800Z,16.48
2023-04-17T22:43:56.550Z,16.88
2023-04-17T22:46:25.377Z,17.73
2023-04-17T22:48:58.457Z,16.50
2023-04-17T22:51:29.419Z,16.60
2023-04-17T22:53:59.912Z,16.48
2023-04-17T22:56:30.431Z,16.92
2023-04-17T22:58:59.264Z,16.58
2023-04-17T23:01:28.161Z,17.30
2023-04-17T23:03:58.196Z,17.90
2023-04-17T23:06:28.093Z,16.38
2023-04-17T23:08:58.347Z,15.35
2023-04-17T23:11:27.184Z,15.93
2023-04-17T23:13:56.192Z,16.42
2023-04-17T23:16:25.238Z,17.27
2023-04-17T23:18:54.320Z,17.15
2023-04-17T23:21:25.215Z,15.75
2023-04-17T23:23:58.994Z,16.15
2023-04-17T23:26:28.218Z,16.00
2023-04-17T23:28:56.967Z,16.52
2023-04-17T23:31:26.389Z,15.75
2023-04-17T23:33:55.459Z,15.73
2023-04-17T23:36:25.899Z,17.13
2023-04-17T23:38:54.917Z,16.88
2023-04-17T23:41:23.931Z,16.23
2023-04-17T23:43:52.842Z,15.85
2023-04-17T23:46:24.433Z,18.33
2023-04-17T23:48:53.490Z,15.48
2023-04-17T23:51:22.536Z,17.02
2023-04-17T23:53:52.920Z,15.23
2023-04-17T23:56:22.697Z,15.88
2023-04-17T23:58:51.483Z,15.05
